Time,TemperatureF,DewpointF,PressureIn,WindDirection,WindDirectionDegrees,WindSpeedMPH,WindSpeedGustMPH,Humidity,HourlyPrecipIn,Conditions,Clouds,dailyrainin,SoftwareType,DateUTC
2013-07-07 00:11:00,70.4,70.0,30.15,SE,132,0.0,-999.0,98,-99.99,,,0.01,weatherlink.com 1.10,2013-07-07 05:11:00,
2013-07-07 00:26:00,70.4,70.0,30.15,SE,132,0.0,-999.0,98,-99.99,,,0.01,weatherlink.com 1.10,2013-07-07 05:26:00,
2013-07-07 00:41:00,70.4,70.0,30.14,SE,132,0.0,-999.0,98,-99.99,,,0.01,weatherlink.com 1.10,2013-07-07 05:41:00,
2013-07-07 00:56:00,70.5,70.0,30.14,SE,132,0.0,-999.0,98,-99.99,,,0.01,weatherlink.com 1.10,2013-07-07 05:56:00,
2013-07-07 01:11:00,70.4,70.0,30.14,SE,135,0.0,-999.0,98,-99.99,,,0.01,weatherlink.com 1.10,2013-07-07 06:11:00,
2013-07-07 01:26:00,70.4,70.0,30.13,SE,135,0.0,-999.0,98,-99.99,,,0.01,weatherlink.com 1.10,2013-07-07 06:26:00,
2013-07-07 01:41:00,70.4,70.0,30.13,SE,135,0.0,-999.0,98,-99.99,,,0.01,weatherlink.com 1.10,2013-07-07 06:41:00,
2013-07-07 01:56:00,70.6,70.0,30.13,SE,135,0.0,-999.0,98,-99.99,,,0.01,weatherlink.com 1.10,2013-07-07 06:56:00,
2013-07-07 02:11:00,70.5,70.0,30.13,SE,135,0.0,-999.0,98,-99.99,,,0.01,weatherlink.com 1.10,2013-07-07 07:11:00,
2013-07-07 02:26:00,70.6,70.0,30.13,SE,135,0.0,-999.0,98,-99.99,,,0.01,weatherlink.com 1.10,2013-07-07 07:26:00,
2013-07-07 02:41:00,70.6,70.0,30.13,SE,135,0.0,-999.0,98,-99.99,,,0.01,weatherlink.com 1.10,2013-07-07 07:41:00,
2013-07-07 02:56:00,70.6,70.0,30.13,SE,135,0.0,-999.0,98,-99.99,,,0.01,weatherlink.com 1.10,2013-07-07 07:56:00,
2013-07-07 03:11:00,70.6,70.0,30.13,SE,135,0.0,-999.0,98,-99.99,,,0.01,weatherlink.com 1.10,2013-07-07 08:11:00,
2013-07-07 03:26:00,70.6,70.0,30.14,SE,135,0.0,-999.0,98,-99.99,,,0.01,weatherlink.com 1.10,2013-07-07 08:26:00,
2013-07-07 03:41:00,70.6,70.0,30.14,SE,136,0.0,-999.0,98,-99.99,,,0.01,weatherlink.com 1.10,2013-07-07 08:41:00,
2013-07-07 03:56:00,70.6,70.0,30.13,SE,136,0.0,-999.0,98,-99.99,,,0.01,weatherlink.com 1.10,2013-07-07 08:56:00,
2013-07-07 04:11:00,70.7,70.0,30.14,SE,136,0.0,-999.0,98,-99.99,,,0.01,weatherlink.com 1.10,2013-07-07 09:11:00,
2013-07-07 04:26:00,70.7,70.0,30.14,SE,136,0.0,-999.0,98,-99.99,,,0.01,weatherlink.com 1.10,2013-07-07 09:26:00,
2013-07-07 04:41:00,70.7,70.0,30.14,SE,136,0.0,-999.0,98,-99.99,,,0.01,weatherlink.com 1.10,2013-07-07 09:41:00,
2013-07-07 04:56:00,70.7,70.0,30.14,SE,136,0.0,-999.0,98,-99.99,,,0.01,weatherlink.com 1.10,2013-07-07 09:56:00,
2013-07-07 05:11:00,70.7,70.0,30.14,SE,136,0.0,-999.0,98,-99.99,,,0.01,weatherlink.com 1.10,2013-07-07 10:11:00,
2013-07-07 05:26:00,70.6,70.0,30.14,SE,136,0.0,-999.0,98,-99.99,,,0.01,weatherlink.com 1.10,2013-07-07 10:26:00,
2013-07-07 05:41:00,70.5,70.0,30.14,SE,136,0.0,-999.0,98,-99.99,,,0.01,weatherlink.com 1.10,2013-07-07 10:41:00,
2013-07-07 05:56:00,70.4,70.0,30.14,SE,136,0.0,-999.0,98,-99.99,,,0.01,weatherlink.com 1.10,2013-07-07 10:56:00,
2013-07-07 06:11:00,70.4,70.0,30.14,SE,133,0.0,-999.0,98,-99.99,,,0.01,weatherlink.com 1.10,2013-07-07 11:11:00,
2013-07-07 06:26:00,70.6,70.0,30.15,SE,133,0.0,-999.0,98,-99.99,,,0.01,weatherlink.com 1.10,2013-07-07 11:26:00,
2013-07-07 06:41:00,70.8,70.0,30.16,SE,133,0.0,-999.0,98,-99.99,,,0.01,weatherlink.com 1.10,2013-07-07 11:41:00,
2013-07-07 06:56:00,70.9,70.0,30.16,SE,133,0.0,-999.0,98,-99.99,,,0.01,weatherlink.com 1.10,2013-07-07 11:56:00,
2013-07-07 07:11:00,71.2,71.0,30.17,SE,139,0.0,-999.0,98,-99.99,,,0.01,weatherlink.com 1.10,2013-07-07 12:11:00,
2013-07-07 07:26:00,71.5,71.0,30.17,SE,139,0.0,-999.0,98,-99.99,,,0.01,weatherlink.com 1.10,2013-07-07 12:26:00,
2013-07-07 07:41:00,71.8,71.0,30.17,SSW,207,6.0,-999.0,98,-99.99,,,0.01,weatherlink.com 1.10,2013-07-07 12:41:00,
2013-07-07 07:56:00,72.4,72.0,30.18,SSW,203,3.0,-999.0,98,-99.99,,,0.01,weatherlink.com 1.10,2013-07-07 12:56:00,
2013-07-07 08:11:00,72.5,72.0,30.18,SSW,212,0.0,-999.0,97,-99.99,,,0.01,weatherlink.com 1.10,2013-07-07 13:11:00,
2013-07-07 08:26:00,72.8,72.0,30.19,SW,215,0.0,-999.0,96,-99.99,,,0.01,weatherlink.com 1.10,2013-07-07 13:26:00,
2013-07-07 08:41:00,73.0,72.0,30.19,SW,214,0.0,-999.0,95,-99.99,,,0.01,weatherlink.com 1.10,2013-07-07 13:41:00,
2013-07-07 08:57:00,73.1,71.0,30.19,SW,225,4.0,-999.0,94,-99.99,,,0.01,weatherlink.com 1.10,2013-07-07 13:57:00,
2013-07-07 09:12:00,72.9,71.0,30.19,SW,236,0.0,-999.0,95,-99.99,,,0.01,weatherlink.com 1.10,2013-07-07 14:12:00,
2013-07-07 09:27:00,72.6,71.0,30.19,SW,236,2.0,-999.0,95,-99.99,,,0.01,weatherlink.com 1.10,2013-07-07 14:27:00,
2013-07-07 09:42:00,72.7,72.0,30.18,SW,236,0.0,-999.0,96,-99.99,,,0.01,weatherlink.com 1.10,2013-07-07 14:42:00,
2013-07-07 09:57:00,73.6,72.0,30.19,SSW,200,2.0,-999.0,95,-99.99,,,0.01,weatherlink.com 1.10,2013-07-07 14:57:00,
2013-07-07 10:12:00,74.7,72.0,30.19,SW,224,0.0,-999.0,92,-99.99,,,0.01,weatherlink.com 1.10,2013-07-07 15:12:00,
2013-07-07 10:27:00,74.5,72.0,30.19,SW,224,2.0,-999.0,91,-99.99,,,0.01,weatherlink.com 1.10,2013-07-07 15:27:00,
2013-07-07 10:42:00,74.7,72.0,30.19,SW,224,0.0,-999.0,91,-99.99,,,0.01,weatherlink.com 1.10,2013-07-07 15:42:00,
2013-07-07 10:57:00,75.7,73.0,30.19,SW,236,0.0,-999.0,90,-99.99,,,0.01,weatherlink.com 1.10,2013-07-07 15:57:00,
2013-07-07 11:12:00,76.3,73.0,30.19,SSW,212,5.0,-999.0,89,-99.99,,,0.01,weatherlink.com 1.10,2013-07-07 16:12:00,
2013-07-07 11:27:00,77.2,72.0,30.19,SW,216,0.0,-999.0,85,-99.99,,,0.01,weatherlink.com 1.10,2013-07-07 16:27:00,
2013-07-07 11:42:00,78.6,72.0,30.19,WSW,248,4.0,-999.0,81,-99.99,,,0.01,weatherlink.com 1.10,2013-07-07 16:42:00,
2013-07-07 11:57:00,79.1,73.0,30.18,SSW,203,1.0,-999.0,81,-99.99,,,0.01,weatherlink.com 1.10,2013-07-07 16:57:00,
2013-07-07 12:12:00,78.7,73.0,30.18,SW,222,6.0,-999.0,82,-99.99,,,0.01,weatherlink.com 1.10,2013-07-07 17:12:00,
2013-07-07 12:27:00,78.6,73.0,30.18,SW,234,6.0,-999.0,82,-99.99,,,0.01,weatherlink.com 1.10,2013-07-07 17:27:00,
2013-07-07 12:42:00,79.0,72.0,30.17,South,191,5.0,-999.0,80,-99.99,,,0.01,weatherlink.com 1.10,2013-07-07 17:42:00,
2013-07-07 12:57:00,79.2,73.0,30.17,SSW,204,4.0,-999.0,81,-99.99,,,0.01,weatherlink.com 1.10,2013-07-07 17:57:00,
2013-07-07 13:12:00,80.2,74.0,30.17,SW,218,0.0,-999.0,80,-99.99,,,0.01,weatherlink.com 1.10,2013-07-07 18:12:00,
2013-07-07 13:27:00,80.4,73.0,30.16,SSW,204,3.0,-999.0,78,-99.99,,,0.01,weatherlink.com 1.10,2013-07-07 18:27:00,
2013-07-07 13:42:00,80.4,74.0,30.16,SW,216,0.0,-999.0,80,-99.99,,,0.01,weatherlink.com 1.10,2013-07-07 18:42:00,
2013-07-07 13:57:00,79.9,73.0,30.16,SSW,210,0.0,-999.0,80,-99.99,,,0.01,weatherlink.com 1.10,2013-07-07 18:57:00,
2013-07-07 14:12:00,80.8,74.0,30.15,SSW,211,0.0,-999.0,79,-99.99,,,0.01,weatherlink.com 1.10,2013-07-07 19:12:00,
2013-07-07 14:27:00,81.8,74.0,30.15,SSW,205,0.0,-999.0,77,-99.99,,,0.01,weatherlink.com 1.10,2013-07-07 19:27:00,
2013-07-07 14:42:00,82.8,75.0,30.14,South,169,0.0,-999.0,77,-99.99,,,0.01,weatherlink.com 1.10,2013-07-07 19:42:00,
2013-07-07 14:57:00,81.6,73.0,30.14,SW,221,0.0,-999.0,75,-99.99,,,0.01,weatherlink.com 1.10,2013-07-07 19:57:00,
2013-07-07 15:12:00,80.9,74.0,30.14,South,175,2.0,-999.0,79,-99.99,,,0.01,weatherlink.com 1.10,2013-07-07 20:12:00,
2013-07-07 15:27:00,82.1,74.0,30.13,South,171,0.0,-999.0,77,-99.99,,,0.00,weatherlink.com 1.10,2013-07-07 20:27:00,
2013-07-07 15:42:00,81.6,74.0,30.13,South,174,0.0,-999.0,77,-99.99,,,0.00,weatherlink.com 1.10,2013-07-07 20:42:00,
2013-07-07 15:57:00,81.5,73.0,30.12,SSW,202,5.0,-999.0,76,-99.99,,,0.00,weatherlink.com 1.10,2013-07-07 20:57:00,
2013-07-07 16:12:00,82.6,74.0,30.12,SW,221,6.0,-999.0,75,-99.99,,,0.00,weatherlink.com 1.10,2013-07-07 21:12:00,
2013-07-07 16:27:00,81.0,74.0,30.12,SW,223,6.0,-999.0,78,-99.99,,,0.00,weatherlink.com 1.10,2013-07-07 21:27:00,
2013-07-07 16:42:00,81.6,74.0,30.12,SW,225,1.0,-999.0,77,-99.99,,,0.00,weatherlink.com 1.10,2013-07-07 21:42:00,
2013-07-07 16:57:00,81.4,74.0,30.12,SSW,200,4.0,-999.0,77,-99.99,,,0.00,weatherlink.com 1.10,2013-07-07 21:57:00,
2013-07-07 17:12:00,80.5,73.0,30.12,SW,222,5.0,-999.0,78,-99.99,,,0.00,weatherlink.com 1.10,2013-07-07 22:12:00,
2013-07-07 17:27:00,80.5,73.0,30.12,SW,215,3.0,-999.0,79,-99.99,,,0.00,weatherlink.com 1.10,2013-07-07 22:27:00,
2013-07-07 17:42:00,80.4,73.0,30.12,SW,221,5.0,-999.0,78,-99.99,,,0.00,weatherlink.com 1.10,2013-07-07 22:42:00,
2013-07-07 17:57:00,80.3,74.0,30.13,SW,218,0.0,-999.0,80,-99.99,,,0.00,weatherlink.com 1.10,2013-07-07 22:57:00,
2013-07-07 18:12:00,80.3,74.0,30.13,SW,214,5.0,-999.0,80,-99.99,,,0.00,weatherlink.com 1.10,2013-07-07 23:12:00,
2013-07-07 18:27:00,79.9,73.0,30.13,SSW,193,0.0,-999.0,79,-99.99,,,0.00,weatherlink.com 1.10,2013-07-07 23:27:00,
2013-07-07 18:42:00,80.2,72.0,30.13,South,169,4.0,-999.0,77,-99.99,,,0.00,weatherlink.com 1.10,2013-07-07 23:42:00,
2013-07-07 18:58:00,79.9,73.0,30.13,SSW,213,4.0,-999.0,78,-99.99,,,0.00,weatherlink.com 1.10,2013-07-07 23:58:00,
2013-07-07 19:13:00,79.2,73.0,30.14,SSW,213,0.0,-999.0,81,-99.99,,,0.00,weatherlink.com 1.10,2013-07-08 00:13:00,
2013-07-07 19:28:00,78.2,73.0,30.14,SSW,213,0.0,-999.0,83,-99.99,,,0.00,weatherlink.com 1.10,2013-07-08 00:28:00,
2013-07-07 19:43:00,77.3,72.0,30.14,SSW,202,2.0,-999.0,84,-99.99,,,0.00,weatherlink.com 1.10,2013-07-08 00:43:00,
2013-07-07 19:58:00,76.8,72.0,30.15,SSW,202,0.0,-999.0,85,-99.99,,,0.00,weatherlink.com 1.10,2013-07-08 00:58:00,
2013-07-07 20:13:00,76.3,72.0,30.15,SSW,202,0.0,-999.0,87,-99.99,,,0.00,weatherlink.com 1.10,2013-07-08 01:13:00,
2013-07-07 20:28:00,75.6,72.0,30.15,SSW,202,0.0,-999.0,88,-99.99,,,0.00,weatherlink.com 1.10,2013-07-08 01:28:00,
2013-07-07 20:43:00,75.0,72.0,30.16,SSW,202,0.0,-999.0,90,-99.99,,,0.00,weatherlink.com 1.10,2013-07-08 01:43:00,
2013-07-07 20:58:00,74.5,72.0,30.16,SSW,202,0.0,-999.0,91,-99.99,,,0.00,weatherlink.com 1.10,2013-07-08 01:58:00,
2013-07-07 21:13:00,74.1,72.0,30.17,SSW,202,0.0,-999.0,92,-99.99,,,0.00,weatherlink.com 1.10,2013-07-08 02:13:00,
2013-07-07 21:28:00,73.8,71.0,30.18,SSW,202,0.0,-999.0,92,-99.99,,,0.00,weatherlink.com 1.10,2013-07-08 02:28:00,
2013-07-07 21:43:00,73.5,71.0,30.18,SSW,202,0.0,-999.0,93,-99.99,,,0.00,weatherlink.com 1.10,2013-07-08 02:43:00,
2013-07-07 21:58:00,73.3,72.0,30.18,SSW,202,0.0,-999.0,94,-99.99,,,0.00,weatherlink.com 1.10,2013-07-08 02:58:00,
2013-07-07 22:13:00,73.0,71.0,30.18,SSW,202,0.0,-999.0,94,-99.99,,,0.00,weatherlink.com 1.10,2013-07-08 03:13:00,
2013-07-07 22:28:00,72.6,71.0,30.18,SSW,202,0.0,-999.0,95,-99.99,,,0.00,weatherlink.com 1.10,2013-07-08 03:28:00,
2013-07-07 22:43:00,72.3,71.0,30.18,SSW,202,0.0,-999.0,95,-99.99,,,0.00,weatherlink.com 1.10,2013-07-08 03:43:00,
2013-07-07 22:58:00,72.1,71.0,30.18,SSW,202,0.0,-999.0,95,-99.99,,,0.00,weatherlink.com 1.10,2013-07-08 03:58:00,
2013-07-07 23:28:00,71.6,70.0,30.18,SSW,202,0.0,-999.0,96,-99.99,,,0.00,weatherlink.com 1.10,2013-07-08 04:28:00,
2013-07-07 23:43:00,71.3,70.0,30.18,SSW,202,0.0,-999.0,96,-99.99,,,0.00,weatherlink.com 1.10,2013-07-08 04:43:00,
2013-07-07 23:58:00,71.5,70.0,30.18,SSW,202,0.0,-999.0,96,-99.99,,,0.00,weatherlink.com 1.10,2013-07-08 04:58:00,